createdAt,value
2017-07-23T00:00:40.533Z,22.4
2017-07-23T00:01:42.644Z,22.4
2017-07-23T00:02:44.742Z,22.4
2017-07-23T00:03:47.174Z,22.4
2017-07-23T00:04:49.291Z,22.4
2017-07-23T00:05:51.389Z,22.4
2017-07-23T00:06:53.503Z,22.4
2017-07-23T00:07:56.280Z,22.4
2017-07-23T00:08:58.700Z,22.3
2017-07-23T00:10:00.797Z,22.4
2017-07-23T00:11:02.898Z,22.4
2017-07-23T00:12:04.997Z,22.3
2017-07-23T00:13:07.435Z,22.3
2017-07-23T00:14:09.532Z,22.3
2017-07-23T00:15:11.630Z,22.3
2017-07-23T00:16:14.393Z,22.3
2017-07-23T00:17:16.499Z,22.3
2017-07-23T00:18:18.612Z,22.4
2017-07-23T00:19:20.721Z,22.3
2017-07-23T00:20:22.816Z,22.3
2017-07-23T00:21:24.913Z,22.4
2017-07-23T00:22:27.341Z,22.4
2017-07-23T00:23:29.436Z,22.4
2017-07-23T00:24:31.544Z,22.4
2017-07-23T00:25:33.616Z,22.4
2017-07-23T00:26:35.713Z,22.3
2017-07-23T00:27:38.166Z,22.4
2017-07-23T00:28:40.972Z,22.4
2017-07-23T00:29:43.402Z,22.3
2017-07-23T00:30:45.514Z,22.3
2017-07-23T00:31:47.961Z,22.3
2017-07-23T00:32:50.060Z,22.3
2017-07-23T00:33:52.489Z,22.3
2017-07-23T00:34:54.940Z,22.3
2017-07-23T00:35:57.742Z,22.4
2017-07-23T00:36:59.830Z,22.4
2017-07-23T00:38:01.927Z,22.4
2017-07-23T00:39:04.372Z,22.4
2017-07-23T00:40:06.800Z,22.4
2017-07-23T00:41:09.243Z,22.4
2017-07-23T00:42:11.675Z,22.4
2017-07-23T00:43:13.774Z,22.4
2017-07-23T00:44:16.217Z,22.4
2017-07-23T00:45:18.987Z,22.4
2017-07-23T00:46:21.087Z,22.4
2017-07-23T00:47:23.198Z,22.4
2017-07-23T00:48:25.279Z,22.4
2017-07-23T00:49:27.404Z,22.4
2017-07-23T00:50:29.824Z,22.4
2017-07-23T00:51:31.922Z,22.4
2017-07-23T00:52:34.362Z,22.4
2017-07-23T00:53:36.455Z,22.4
2017-07-23T00:54:38.566Z,22.4
2017-07-23T00:55:40.667Z,22.4
2017-07-23T00:56:42.748Z,22.4
2017-07-23T00:57:44.860Z,22.4
2017-07-23T00:58:47.302Z,22.4
2017-07-23T00:59:49.402Z,22.4
2017-07-23T01:00:51.507Z,22.4
2017-07-23T01:01:53.943Z,22.4
2017-07-23T01:02:56.030Z,22.4
2017-07-23T01:03:58.136Z,22.4
2017-07-23T01:05:00.244Z,22.4
2017-07-23T01:06:02.328Z,22.4
2017-07-23T01:07:04.450Z,22.4
2017-07-23T01:08:06.555Z,22.4
2017-07-23T01:09:08.654Z,22.4
2017-07-23T01:10:11.089Z,22.4
2017-07-23T01:11:13.188Z,22.4
2017-07-23T01:12:15.289Z,22.4
2017-07-23T01:13:17.372Z,22.3
2017-07-23T01:14:19.491Z,22.3
2017-07-23T01:15:21.598Z,22.3
2017-07-23T01:16:23.692Z,22.3
2017-07-23T01:17:25.787Z,22.3
2017-07-23T01:18:28.232Z,22.3
2017-07-23T01:19:30.329Z,22.3
2017-07-23T01:20:32.414Z,22.3
2017-07-23T01:21:34.508Z,22.3
2017-07-23T01:22:36.616Z,22.3
2017-07-23T01:23:38.709Z,22.3
2017-07-23T01:24:40.800Z,22.2
2017-07-23T01:25:43.250Z,22.2
2017-07-23T01:26:45.344Z,22.2
2017-07-23T01:27:47.442Z,22.2
2017-07-23T01:28:49.544Z,22.2
2017-07-23T01:29:51.655Z,22.2
2017-07-23T01:30:53.757Z,22.2
2017-07-23T01:31:55.839Z,22.1
2017-07-23T01:32:58.617Z,22.1
2017-07-23T01:34:00.730Z,22.1
2017-07-23T01:35:02.824Z,22.1
2017-07-23T01:36:05.602Z,22.1
2017-07-23T01:37:08.033Z,22.1
2017-07-23T01:38:10.480Z,22.1
2017-07-23T01:39:12.929Z,22
2017-07-23T01:40:15.029Z,22
2017-07-23T01:41:17.123Z,22
2017-07-23T01:42:19.231Z,22
2017-07-23T01:43:21.326Z,22
2017-07-23T01:44:23.773Z,22
2017-07-23T01:45:26.205Z,22
2017-07-23T01:46:28.645Z,21.9
2017-07-23T01:47:30.736Z,21.9
2017-07-23T01:48:33.168Z,21.9
2017-07-23T01:49:35.273Z,21.9
2017-07-23T01:50:37.377Z,21.9
2017-07-23T01:51:39.471Z,21.8
2017-07-23T01:52:42.248Z,21.8
2017-07-23T01:53:44.349Z,21.8
2017-07-23T01:54:46.450Z,21.8
2017-07-23T01:55:48.547Z,21.8
2017-07-23T01:56:50.655Z,21.8
2017-07-23T01:57:53.086Z,21.8
2017-07-23T01:58:55.195Z,21.7
2017-07-23T01:59:57.288Z,21.7
2017-07-23T02:00:59.380Z,21.7
2017-07-23T02:02:01.825Z,21.7
2017-07-23T02:03:04.274Z,21.7
2017-07-23T02:04:06.366Z,21.7
2017-07-23T02:05:08.824Z,21.7
2017-07-23T02:06:10.914Z,21.7
2017-07-23T02:07:13.033Z,21.7
2017-07-23T02:08:15.133Z,21.7
2017-07-23T02:09:17.905Z,21.6
2017-07-23T02:10:20.001Z,21.7
2017-07-23T02:11:22.453Z,21.7
2017-07-23T02:12:24.536Z,21.7
2017-07-23T02:13:26.635Z,21.7
2017-07-23T02:14:28.756Z,21.7
2017-07-23T02:15:31.190Z,21.6
2017-07-23T02:16:33.293Z,21.6
2017-07-23T02:17:35.384Z,21.6
2017-07-23T02:18:37.487Z,21.6
2017-07-23T02:19:39.938Z,21.6
2017-07-23T02:20:42.036Z,21.6
2017-07-23T02:21:44.118Z,21.6
2017-07-23T02:22:46.572Z,21.5
2017-07-23T02:23:48.679Z,21.5
2017-07-23T02:24:50.777Z,21.5
2017-07-23T02:25:52.873Z,21.5
2017-07-23T02:26:54.976Z,21.5
2017-07-23T02:27:57.060Z,21.5
2017-07-23T02:28:59.191Z,21.5
2017-07-23T02:30:01.279Z,21.5
2017-07-23T02:31:04.087Z,21.5
2017-07-23T02:32:06.541Z,21.5
2017-07-23T02:33:08.657Z,21.5
2017-07-23T02:34:10.770Z,21.4
2017-07-23T02:35:12.873Z,21.4
2017-07-23T02:36:14.971Z,21.4
2017-07-23T02:37:17.432Z,21.4
2017-07-23T02:38:19.537Z,21.4
2017-07-23T02:39:21.632Z,21.4
2017-07-23T02:40:24.070Z,21.4
2017-07-23T02:41:26.850Z,21.5
2017-07-23T02:42:29.282Z,21.5
2017-07-23T02:43:32.087Z,21.4
2017-07-23T02:44:34.856Z,21.4
2017-07-23T02:45:36.963Z,21.4
2017-07-23T02:46:39.735Z,21.4
2017-07-23T02:47:41.829Z,21.4
2017-07-23T02:48:44.295Z,21.4
2017-07-23T02:49:46.407Z,21.4
2017-07-23T02:50:48.510Z,21.4
2017-07-23T02:51:50.630Z,21.4
2017-07-23T02:52:52.755Z,21.4
2017-07-23T02:53:54.846Z,21.4
2017-07-23T02:54:57.640Z,21.4
2017-07-23T02:56:00.079Z,21.4
2017-07-23T02:57:02.191Z,21.4
2017-07-23T02:58:04.978Z,21.4
2017-07-23T02:59:07.071Z,21.4
2017-07-23T03:00:09.170Z,21.4
2017-07-23T03:01:11.613Z,21.4
2017-07-23T03:02:13.732Z,21.4
2017-07-23T03:03:15.827Z,21.4
2017-07-23T03:04:18.262Z,21.4
2017-07-23T03:05:20.361Z,21.4
2017-07-23T03:06:22.462Z,21.4
2017-07-23T03:07:24.577Z,21.5
2017-07-23T03:08:26.668Z,21.5
2017-07-23T03:09:29.119Z,21.5
2017-07-23T03:10:31.226Z,21.5
2017-07-23T03:11:33.317Z,21.5
2017-07-23T03:12:35.416Z,21.5
2017-07-23T03:13:37.521Z,21.5
2017-07-23T03:14:39.951Z,21.5
2017-07-23T03:15:42.732Z,21.5
2017-07-23T03:16:45.169Z,21.5
2017-07-23T03:17:47.273Z,21.5
2017-07-23T03:18:49.388Z,21.5
2017-07-23T03:19:51.471Z,21.5
2017-07-23T03:20:53.591Z,21.5
2017-07-23T03:21:56.026Z,21.5
2017-07-23T03:22:58.821Z,21.6
2017-07-23T03:24:01.269Z,21.6
2017-07-23T03:25:03.724Z,21.6
2017-07-23T03:26:06.164Z,21.6
2017-07-23T03:27:08.271Z,21.6
2017-07-23T03:28:10.384Z,21.6
2017-07-23T03:29:12.500Z,21.6
2017-07-23T03:30:14.953Z,21.6
2017-07-23T03:31:17.063Z,21.6
2017-07-23T03:32:19.507Z,21.6
2017-07-23T03:33:22.281Z,21.6
2017-07-23T03:34:24.390Z,21.6
2017-07-23T03:35:26.837Z,21.6
2017-07-23T03:36:29.287Z,21.6
2017-07-23T03:37:31.392Z,21.6
2017-07-23T03:38:33.846Z,21.5
2017-07-23T03:39:35.996Z,21.5
2017-07-23T03:40:38.100Z,21.5
2017-07-23T03:41:40.545Z,21.5
2017-07-23T03:42:42.987Z,21.5
2017-07-23T03:43:45.414Z,21.4
2017-07-23T03:44:47.536Z,21.5
2017-07-23T03:45:49.639Z,21.5
2017-07-23T03:46:52.423Z,21.5
2017-07-23T03:47:54.524Z,21.5
2017-07-23T03:48:56.632Z,21.5
2017-07-23T03:49:59.082Z,21.5
2017-07-23T03:51:01.523Z,21.5
2017-07-23T03:52:03.991Z,21.5
2017-07-23T03:53:06.465Z,21.5
2017-07-23T03:54:08.541Z,21.5
2017-07-23T03:55:10.652Z,21.5
2017-07-23T03:56:13.449Z,21.5
2017-07-23T03:57:15.546Z,21.5
2017-07-23T03:58:17.985Z,21.5
2017-07-23T03:59:20.440Z,21.5
2017-07-23T04:00:22.540Z,21.5
2017-07-23T04:01:24.642Z,21.5
2017-07-23T04:02:26.774Z,21.4
2017-07-23T04:03:29.256Z,21.4
2017-07-23T04:04:31.358Z,21.4
2017-07-23T04:05:33.812Z,21.4
2017-07-23T04:06:36.277Z,21.4
2017-07-23T04:07:38.717Z,21.4
2017-07-23T04:08:41.155Z,21.3
2017-07-23T04:09:43.606Z,21.3
2017-07-23T04:10:46.029Z,21.3
2017-07-23T04:11:48.471Z,21.3
2017-07-23T04:12:50.914Z,21.3
2017-07-23T04:13:53.006Z,21.3
2017-07-23T04:14:55.109Z,21.3
2017-07-23T04:15:57.202Z,21.2
2017-07-23T04:16:59.652Z,21.3
2017-07-23T04:18:02.783Z,21.3
2017-07-23T04:19:05.579Z,21.2
2017-07-23T04:20:08.040Z,21.3
2017-07-23T04:21:11.181Z,21.3
2017-07-23T04:22:14.319Z,21.3
2017-07-23T04:23:16.412Z,21.3
2017-07-23T04:24:18.508Z,21.3
2017-07-23T04:25:20.630Z,21.2
2017-07-23T04:26:22.717Z,21.3
2017-07-23T04:27:24.824Z,21.3
2017-07-23T04:28:26.933Z,21.3
2017-07-23T04:29:29.015Z,21.3
2017-07-23T04:30:31.118Z,21.3
2017-07-23T04:31:33.226Z,21.2
2017-07-23T04:32:35.659Z,21.2
2017-07-23T04:33:37.764Z,21.2
2017-07-23T04:34:40.184Z,21.3
2017-07-23T04:35:42.298Z,21.2
2017-07-23T04:36:44.400Z,21.2
2017-07-23T04:37:47.173Z,21.2
2017-07-23T04:38:49.288Z,21.2
2017-07-23T04:39:51.745Z,21.2
2017-07-23T04:40:53.842Z,21.2
2017-07-23T04:41:55.930Z,21.2
2017-07-23T04:42:58.361Z,21.2
2017-07-23T04:44:00.807Z,21.2
2017-07-23T04:45:03.262Z,21.2
2017-07-23T04:46:05.353Z,21.2
2017-07-23T04:47:07.455Z,21.2
2017-07-23T04:48:09.554Z,21.1
2017-07-23T04:49:11.670Z,21.2
2017-07-23T04:50:14.113Z,21.2
2017-07-23T04:51:16.220Z,21.1
2017-07-23T04:52:18.333Z,21.2
2017-07-23T04:53:20.436Z,21.2
2017-07-23T04:54:22.537Z,21.2
2017-07-23T04:55:24.979Z,21.2
2017-07-23T04:56:27.091Z,21.2
2017-07-23T04:57:29.200Z,21.2
2017-07-23T04:58:31.282Z,21.2
2017-07-23T04:59:33.387Z,21.2
2017-07-23T05:00:35.497Z,21.2
2017-07-23T05:01:37.589Z,21.2
2017-07-23T05:02:39.701Z,21.2
2017-07-23T05:03:42.832Z,21.2
2017-07-23T05:04:44.937Z,21.2
2017-07-23T05:05:47.064Z,21.3
2017-07-23T05:06:49.167Z,21.2
2017-07-23T05:07:51.633Z,21.3
2017-07-23T05:08:53.749Z,21.3
2017-07-23T05:09:56.186Z,21.3
2017-07-23T05:10:58.290Z,21.3
2017-07-23T05:12:00.400Z,21.3
2017-07-23T05:13:02.533Z,21.4
2017-07-23T05:14:04.974Z,21.4
2017-07-23T05:15:07.765Z,21.4
2017-07-23T05:16:10.205Z,21.4
2017-07-23T05:17:12.297Z,21.5
2017-07-23T05:18:14.397Z,21.5
2017-07-23T05:19:17.544Z,21.5
2017-07-23T05:20:19.635Z,21.5
2017-07-23T05:21:22.085Z,21.5
2017-07-23T05:22:24.178Z,21.5
2017-07-23T05:23:26.947Z,21.4
2017-07-23T05:24:29.063Z,21.4
2017-07-23T05:25:31.163Z,21.4
2017-07-23T05:26:33.269Z,21.4
2017-07-23T05:27:35.705Z,21.4
2017-07-23T05:28:37.822Z,21.3
2017-07-23T05:29:39.991Z,21.3
2017-07-23T05:30:43.258Z,21.3
2017-07-23T05:31:50.144Z,21.3
2017-07-23T05:32:56.190Z,21.3
2017-07-23T05:34:03.155Z,21.3
2017-07-23T05:35:07.088Z,21.3
2017-07-23T05:36:12.000Z,21.3
2017-07-23T05:37:18.677Z,21.3
2017-07-23T05:38:25.380Z,21.3
2017-07-23T05:39:31.377Z,21.3
2017-07-23T05:40:37.083Z,21.3
2017-07-23T05:41:42.018Z,21.3
2017-07-23T05:42:46.726Z,21.3
2017-07-23T05:43:52.107Z,21.3
2017-07-23T05:44:57.689Z,21.3
2017-07-23T05:46:02.430Z,21.3
2017-07-23T05:47:07.181Z,21.3
2017-07-23T05:48:11.958Z,21.3
2017-07-23T05:49:14.572Z,21.3
2017-07-23T05:50:17.785Z,21.3
2017-07-23T05:51:22.280Z,21.3
2017-07-23T05:52:24.888Z,21.3
2017-07-23T05:53:27.007Z,21.3
2017-07-23T05:54:29.172Z,21.3
2017-07-23T05:55:32.393Z,21.2
2017-07-23T05:56:36.349Z,21.3
2017-07-23T05:57:38.805Z,21.2
2017-07-23T05:58:42.624Z,21.3
2017-07-23T05:59:45.568Z,21.3
2017-07-23T06:00:48.570Z,21.2
2017-07-23T06:01:50.890Z,21.2
2017-07-23T06:02:53.825Z,21.2
2017-07-23T06:03:57.479Z,21.2
2017-07-23T06:05:00.779Z,21.2
2017-07-23T06:06:03.129Z,21.1
2017-07-23T06:07:07.223Z,21.2
2017-07-23T06:08:09.620Z,21.2
2017-07-23T06:09:11.805Z,21.1
2017-07-23T06:10:14.204Z,21.2
2017-07-23T06:11:18.703Z,21.1
2017-07-23T06:12:22.190Z,21.2
2017-07-23T06:13:27.692Z,21.2
2017-07-23T06:14:33.608Z,21.2
2017-07-23T06:15:36.931Z,21.1
2017-07-23T06:16:39.384Z,21.1
2017-07-23T06:17:41.853Z,21.2
2017-07-23T06:18:44.458Z,21.2
2017-07-23T06:19:47.667Z,21.2
2017-07-23T06:21:21.985Z,21.2
2017-07-23T06:22:24.049Z,21.2
2017-07-23T06:23:26.160Z,21.2
2017-07-23T06:24:28.733Z,21.2
2017-07-23T06:25:33.530Z,21.2
2017-07-23T06:26:39.473Z,21.2
2017-07-23T06:27:42.828Z,21.2
2017-07-23T06:28:46.561Z,21.2
2017-07-23T06:29:50.870Z,21.1
2017-07-23T06:30:55.156Z,21.2
2017-07-23T06:31:59.245Z,21.2
2017-07-23T06:33:03.723Z,21.2
2017-07-23T06:34:07.337Z,21.2
2017-07-23T06:35:09.948Z,21.2
2017-07-23T06:36:12.223Z,21.2
2017-07-23T06:37:14.934Z,21.2
2017-07-23T06:38:20.580Z,21.2
2017-07-23T06:39:25.513Z,21.2
2017-07-23T06:40:30.153Z,21.1
2017-07-23T06:41:32.489Z,21.2
2017-07-23T06:42:34.607Z,21.2
2017-07-23T06:43:38.763Z,21.2
2017-07-23T06:44:42.967Z,21.2
2017-07-23T06:45:45.579Z,21.2
2017-07-23T06:46:50.170Z,21.2
2017-07-23T06:47:54.906Z,21.2
2017-07-23T06:48:59.634Z,21.2
2017-07-23T06:50:06.408Z,21.2
2017-07-23T06:51:11.630Z,21.3
2017-07-23T06:52:14.437Z,21.3
2017-07-23T06:53:18.415Z,21.3
2017-07-23T06:54:22.881Z,21.4
2017-07-23T06:55:27.816Z,21.4
2017-07-23T06:56:31.345Z,21.4
2017-07-23T06:57:36.851Z,21.5
2017-07-23T06:58:41.328Z,21.5
2017-07-23T06:59:46.547Z,21.6
2017-07-23T07:00:50.373Z,21.6
2017-07-23T07:01:56.177Z,21.6
2017-07-23T07:03:00.854Z,21.7
2017-07-23T07:04:05.756Z,21.7
2017-07-23T07:05:07.852Z,21.8
2017-07-23T07:06:09.921Z,21.8
2017-07-23T07:07:11.983Z,21.8
2017-07-23T07:08:14.068Z,21.8
2017-07-23T07:09:16.833Z,21.8
2017-07-23T07:10:18.908Z,21.8
2017-07-23T07:11:21.321Z,21.9
2017-07-23T07:12:23.394Z,21.9
2017-07-23T07:13:25.449Z,21.9
2017-07-23T07:14:27.510Z,21.9
2017-07-23T07:15:29.601Z,22
2017-07-23T07:16:31.670Z,22.1
2017-07-23T07:17:33.766Z,22.1
2017-07-23T07:18:35.819Z,22.1
2017-07-23T07:19:37.887Z,22.2
2017-07-23T07:20:39.961Z,22.2
2017-07-23T07:21:42.051Z,22.3
2017-07-23T07:22:44.116Z,22.3
2017-07-23T07:23:46.168Z,22.4
2017-07-23T07:24:48.242Z,22.4
2017-07-23T07:25:50.642Z,22.4
2017-07-23T07:26:52.732Z,22.5
2017-07-23T07:27:55.158Z,22.5
2017-07-23T07:28:57.235Z,22.5
2017-07-23T07:29:59.308Z,22.6
2017-07-23T07:31:01.709Z,22.6
2017-07-23T07:32:04.123Z,22.6
2017-07-23T07:33:06.232Z,22.6
2017-07-23T07:34:08.290Z,22.6
2017-07-23T07:35:11.115Z,22.7
2017-07-23T07:36:13.177Z,22.7
2017-07-23T07:37:15.286Z,22.7
2017-07-23T07:38:17.688Z,22.7
2017-07-23T07:39:19.748Z,22.7
2017-07-23T07:40:22.190Z,22.7
2017-07-23T07:41:24.248Z,22.7
2017-07-23T07:42:26.328Z,22.7
2017-07-23T07:43:28.385Z,22.7
2017-07-23T07:44:30.819Z,22.7
2017-07-23T07:45:32.870Z,22.7
2017-07-23T07:46:34.959Z,22.8
2017-07-23T07:47:37.714Z,22.7
2017-07-23T07:48:39.817Z,22.8
2017-07-23T07:49:41.871Z,22.8
2017-07-23T07:50:44.301Z,22.8
2017-07-23T07:51:46.388Z,22.8
2017-07-23T07:52:48.798Z,22.9
2017-07-23T07:53:50.857Z,22.9
2017-07-23T07:54:52.921Z,22.9
2017-07-23T07:55:55.674Z,23
2017-07-23T07:56:58.070Z,23
2017-07-23T07:58:00.137Z,23
2017-07-23T07:59:02.211Z,23.1
2017-07-23T08:00:04.317Z,23
2017-07-23T08:01:06.386Z,23.1
2017-07-23T08:02:08.788Z,23.1
2017-07-23T08:03:11.198Z,23.1
2017-07-23T08:04:13.617Z,23.2
2017-07-23T08:05:15.667Z,23.1
2017-07-23T08:06:17.737Z,23.2
2017-07-23T08:07:19.802Z,23.2
2017-07-23T08:08:21.867Z,23.1
2017-07-23T08:09:23.943Z,23.1
2017-07-23T08:10:26.014Z,23.1
2017-07-23T08:11:28.060Z,23.1
2017-07-23T08:12:30.132Z,23.1
2017-07-23T08:13:32.194Z,23
2017-07-23T08:14:34.260Z,23
2017-07-23T08:15:36.322Z,23
2017-07-23T08:16:38.395Z,23
2017-07-23T08:17:40.468Z,23
2017-07-23T08:18:42.893Z,23
2017-07-23T08:19:45.293Z,23.1
2017-07-23T08:20:47.374Z,23
2017-07-23T08:21:49.433Z,23.1
2017-07-23T08:22:51.827Z,23
2017-07-23T08:23:53.885Z,23.1
2017-07-23T08:24:56.289Z,23.1
2017-07-23T08:25:58.682Z,23
2017-07-23T08:27:01.085Z,23
2017-07-23T08:28:03.169Z,23
2017-07-23T08:29:05.241Z,22.9
2017-07-23T08:30:07.677Z,23
2017-07-23T08:31:09.757Z,22.9
2017-07-23T08:32:11.826Z,22.9
2017-07-23T08:33:13.895Z,23
2017-07-23T08:34:15.958Z,23
2017-07-23T08:35:18.018Z,23
2017-07-23T08:36:20.426Z,23
2017-07-23T08:37:22.816Z,23
2017-07-23T08:38:24.882Z,23
2017-07-23T08:39:26.959Z,23
2017-07-23T08:40:29.378Z,23
2017-07-23T08:41:32.130Z,23
2017-07-23T08:42:34.530Z,23
2017-07-23T08:43:37.270Z,23
2017-07-23T08:44:39.349Z,23
2017-07-23T08:45:41.760Z,23.1
2017-07-23T08:46:44.204Z,23.1
2017-07-23T08:47:46.268Z,23.2
2017-07-23T08:48:48.695Z,23.2
2017-07-23T08:49:50.771Z,23.3
2017-07-23T08:50:53.165Z,23.3
2017-07-23T08:51:55.230Z,23.4
2017-07-23T08:52:57.306Z,23.5
2017-07-23T08:53:59.367Z,23.5
2017-07-23T08:55:01.778Z,23.6
2017-07-23T08:56:04.591Z,23.7
2017-07-23T08:57:07.000Z,23.7
2017-07-23T08:58:09.070Z,23.8
2017-07-23T08:59:11.521Z,23.8
2017-07-23T09:00:13.604Z,23.8
2017-07-23T09:01:15.663Z,23.8
2017-07-23T09:02:17.725Z,23.8
2017-07-23T09:03:19.805Z,23.9
2017-07-23T09:04:22.195Z,23.8
2017-07-23T09:05:24.258Z,23.8
2017-07-23T09:06:26.342Z,23.8
2017-07-23T09:07:28.407Z,23.8
2017-07-23T09:08:30.483Z,23.8
2017-07-23T09:09:33.227Z,23.7
2017-07-23T09:10:35.301Z,23.7
2017-07-23T09:11:37.361Z,23.7
2017-07-23T09:12:39.404Z,23.7
2017-07-23T09:13:41.505Z,23.7
2017-07-23T09:14:43.560Z,23.7
2017-07-23T09:15:45.645Z,23.6
2017-07-23T09:16:48.069Z,23.7
2017-07-23T09:17:50.166Z,23.7
2017-07-23T09:18:52.226Z,23.7
2017-07-23T09:19:54.313Z,23.8
2017-07-23T09:20:56.378Z,23.8
2017-07-23T09:21:58.779Z,23.8
2017-07-23T09:23:01.185Z,23.8
2017-07-23T09:24:04.289Z,23.9
2017-07-23T09:25:06.411Z,23.9
2017-07-23T09:26:08.478Z,23.9
2017-07-23T09:27:10.572Z,24
2017-07-23T09:28:12.982Z,24
2017-07-23T09:29:15.083Z,24
2017-07-23T09:30:17.854Z,24
2017-07-23T09:31:19.919Z,24
2017-07-23T09:32:22.029Z,24
2017-07-23T09:33:24.088Z,24
2017-07-23T09:34:26.153Z,24
2017-07-23T09:35:28.278Z,24
2017-07-23T09:36:30.696Z,24
2017-07-23T09:37:33.437Z,23.9
2017-07-23T09:38:35.520Z,24
2017-07-23T09:39:37.582Z,23.9
2017-07-23T09:40:39.659Z,23.9
2017-07-23T09:41:41.833Z,24
2017-07-23T09:42:43.897Z,24
2017-07-23T09:43:45.973Z,24
2017-07-23T09:44:48.071Z,24.1
2017-07-23T09:45:50.480Z,24.1
2017-07-23T09:46:52.581Z,24.1
2017-07-23T09:47:54.643Z,24.1
2017-07-23T09:48:57.054Z,24.1
2017-07-23T09:49:59.117Z,24
2017-07-23T09:51:01.190Z,24
2017-07-23T09:52:03.600Z,24.1
2017-07-23T09:53:05.652Z,24.1
2017-07-23T09:54:08.394Z,24.1
2017-07-23T09:55:10.535Z,24.1
2017-07-23T09:56:12.603Z,24.1
2017-07-23T09:57:14.701Z,24.2
2017-07-23T09:58:16.770Z,24.3
2017-07-23T09:59:18.827Z,24.3
2017-07-23T10:00:20.906Z,24.3
2017-07-23T10:01:23.293Z,24.3
2017-07-23T10:02:26.423Z,24.3
2017-07-23T10:03:28.622Z,24.3
2017-07-23T10:04:30.704Z,24.3
2017-07-23T10:05:33.454Z,24.3
2017-07-23T10:06:35.861Z,24.3
2017-07-23T10:07:37.927Z,24.4
2017-07-23T10:08:39.988Z,24.4
2017-07-23T10:09:42.379Z,24.4
2017-07-23T10:10:44.451Z,24.5
2017-07-23T10:11:46.501Z,24.5
2017-07-23T10:12:48.923Z,24.5
2017-07-23T10:13:50.996Z,24.6
2017-07-23T10:14:53.061Z,24.6
2017-07-23T10:15:55.118Z,24.6
2017-07-23T10:16:57.179Z,24.6
2017-07-23T10:17:59.250Z,24.6
2017-07-23T10:19:01.679Z,24.7
2017-07-23T10:20:04.081Z,24.7
2017-07-23T10:21:06.157Z,24.7
2017-07-23T10:22:08.922Z,24.8
2017-07-23T10:23:11.340Z,24.8
2017-07-23T10:24:13.402Z,24.8
2017-07-23T10:25:15.472Z,24.9
2017-07-23T10:26:17.885Z,25
2017-07-23T10:27:19.956Z,25.1
2017-07-23T10:28:22.707Z,25.1
2017-07-23T10:29:24.794Z,25.2
2017-07-23T10:30:26.875Z,25.2
2017-07-23T10:31:29.287Z,25.3
2017-07-23T10:32:31.360Z,25.4
2017-07-23T10:33:33.420Z,25.4
2017-07-23T10:34:35.492Z,25.5
2017-07-23T10:35:37.570Z,25.5
2017-07-23T10:36:39.984Z,25.5
2017-07-23T10:37:42.050Z,25.5
2017-07-23T10:38:44.102Z,25.6
2017-07-23T10:39:46.532Z,25.6
2017-07-23T10:40:48.583Z,25.6
2017-07-23T10:41:50.669Z,25.6
2017-07-23T10:42:52.752Z,25.6
2017-07-23T10:43:55.144Z,25.6
2017-07-23T10:44:57.216Z,25.6
2017-07-23T10:45:59.273Z,25.6
2017-07-23T10:47:01.344Z,25.6
2017-07-23T10:48:03.411Z,25.7
2017-07-23T10:49:05.486Z,25.7
2017-07-23T10:50:07.915Z,25.8
2017-07-23T10:51:09.984Z,25.8
2017-07-23T10:52:12.048Z,25.8
2017-07-23T10:53:14.455Z,25.9
2017-07-23T10:54:16.541Z,26.1
2017-07-23T10:55:18.611Z,26.2
2017-07-23T10:56:20.680Z,26.3
2017-07-23T10:57:22.736Z,26.5
2017-07-23T10:58:24.809Z,26.5
2017-07-23T10:59:27.205Z,26.6
2017-07-23T11:00:29.953Z,26.6
2017-07-23T11:01:32.035Z,26.7
2017-07-23T11:02:34.436Z,26.9
2017-07-23T11:03:36.509Z,27.1
2017-07-23T11:04:39.260Z,27.3
2017-07-23T11:05:41.324Z,27.4
2017-07-23T11:06:43.728Z,27.5
2017-07-23T11:07:45.805Z,27.6
2017-07-23T11:08:47.867Z,27.7
2017-07-23T11:09:49.939Z,27.8
2017-07-23T11:10:52.031Z,27.9
2017-07-23T11:11:54.107Z,27.9
2017-07-23T11:12:56.182Z,27.8
2017-07-23T11:13:58.260Z,27.8
2017-07-23T11:15:00.655Z,27.7
2017-07-23T11:16:02.745Z,27.7
2017-07-23T11:17:04.794Z,27.6
2017-07-23T11:18:06.873Z,27.7
2017-07-23T11:19:08.934Z,27.8
2017-07-23T11:20:10.995Z,27.9
2017-07-23T11:21:13.059Z,28
2017-07-23T11:22:15.467Z,28
2017-07-23T11:23:17.532Z,28
2017-07-23T11:24:20.285Z,28
2017-07-23T11:25:22.351Z,27.9
2017-07-23T11:26:24.427Z,27.9
2017-07-23T11:27:26.497Z,27.9
2017-07-23T11:28:28.593Z,27.8
2017-07-23T11:29:31.359Z,27.7
2017-07-23T11:30:33.501Z,27.7
2017-07-23T11:31:35.935Z,27.7
2017-07-23T11:32:38.384Z,27.6
2017-07-23T11:33:40.491Z,27.6
2017-07-23T11:34:42.582Z,27.5
2017-07-23T11:35:44.697Z,27.4
2017-07-23T11:36:47.105Z,27.3
2017-07-23T11:37:49.191Z,27.3
2017-07-23T11:38:51.616Z,27.2
2017-07-23T11:39:53.666Z,27.1
2017-07-23T11:40:56.137Z,27
2017-07-23T11:41:58.635Z,27
2017-07-23T11:43:01.720Z,27
2017-07-23T11:44:03.902Z,26.9
2017-07-23T11:45:06.283Z,26.8
2017-07-23T11:46:08.706Z,26.8
2017-07-23T11:47:11.133Z,26.8
2017-07-23T11:48:13.596Z,26.7
2017-07-23T11:49:15.653Z,26.7
2017-07-23T11:50:17.882Z,26.6
2017-07-23T11:51:20.312Z,26.5
2017-07-23T11:52:22.375Z,26.5
2017-07-23T11:53:24.438Z,26.4
2017-07-23T11:54:26.509Z,26.3
2017-07-23T11:55:28.584Z,26.3
2017-07-23T11:56:30.652Z,26.2
2017-07-23T11:57:32.727Z,26.2
2017-07-23T11:58:35.490Z,26
2017-07-23T11:59:37.554Z,26
2017-07-23T12:00:39.620Z,25.9
2017-07-23T12:01:42.028Z,25.8
2017-07-23T12:02:44.445Z,25.7
2017-07-23T12:03:46.850Z,25.6
2017-07-23T12:04:48.906Z,25.5
2017-07-23T12:05:51.328Z,25.4
2017-07-23T12:06:53.391Z,25.3
2017-07-23T12:07:55.460Z,25.1
2017-07-23T12:08:57.521Z,25
2017-07-23T12:09:59.933Z,24.9
2017-07-23T12:11:03.043Z,24.8
2017-07-23T12:12:05.804Z,24.7
2017-07-23T12:13:07.875Z,24.6
2017-07-23T12:14:09.944Z,24.5
2017-07-23T12:15:12.344Z,24.5
2017-07-23T12:16:14.428Z,24.5
2017-07-23T12:17:16.486Z,24.4
2017-07-23T12:18:19.239Z,24.4
2017-07-23T12:19:21.303Z,24.4
2017-07-23T12:20:23.351Z,24.3
2017-07-23T12:21:25.421Z,24.3
2017-07-23T12:22:27.495Z,24.3
2017-07-23T12:23:29.913Z,24.2
2017-07-23T12:24:31.977Z,24.1
2017-07-23T12:25:34.036Z,24
2017-07-23T12:26:36.119Z,24
2017-07-23T12:27:38.182Z,23.9
2017-07-23T12:28:40.245Z,23.9
2017-07-23T12:29:42.652Z,23.9
2017-07-23T12:30:44.718Z,23.8
2017-07-23T12:31:46.804Z,23.8
2017-07-23T12:32:48.859Z,23.8
2017-07-23T12:33:50.924Z,23.7
2017-07-23T12:34:53.020Z,23.7
2017-07-23T12:35:55.093Z,23.7
2017-07-23T12:36:57.525Z,23.7
2017-07-23T12:37:59.592Z,23.7
2017-07-23T12:39:02.377Z,23.7
2017-07-23T12:40:04.456Z,23.7
2017-07-23T12:41:06.509Z,23.7
2017-07-23T12:42:08.584Z,23.7
2017-07-23T12:43:10.632Z,23.7
2017-07-23T12:44:12.700Z,23.7
2017-07-23T12:45:14.752Z,23.7
2017-07-23T12:46:16.847Z,23.7
2017-07-23T12:47:18.916Z,23.7
2017-07-23T12:48:20.972Z,23.8
2017-07-23T12:49:23.396Z,23.8
2017-07-23T12:50:25.466Z,23.8
2017-07-23T12:51:27.526Z,23.8
2017-07-23T12:52:29.580Z,23.9
2017-07-23T12:53:31.999Z,23.9
2017-07-23T12:54:34.425Z,23.9
2017-07-23T12:55:36.482Z,23.9
2017-07-23T12:56:38.879Z,23.9
2017-07-23T12:57:40.948Z,23.9
2017-07-23T12:58:43.020Z,23.9
2017-07-23T12:59:45.087Z,23.9
2017-07-23T13:00:47.845Z,24
2017-07-23T13:01:50.597Z,24
2017-07-23T13:02:52.679Z,24
2017-07-23T13:03:54.759Z,24
2017-07-23T13:04:57.177Z,24
2017-07-23T13:05:59.576Z,24
2017-07-23T13:07:01.676Z,24
2017-07-23T13:08:03.738Z,24
2017-07-23T13:09:06.133Z,24
2017-07-23T13:10:08.584Z,23.9
2017-07-23T13:11:10.646Z,23.9
2017-07-23T13:12:13.396Z,23.9
2017-07-23T13:13:15.459Z,23.9
2017-07-23T13:14:17.862Z,23.9
2017-07-23T13:15:19.926Z,23.9
2017-07-23T13:16:21.996Z,23.9
2017-07-23T13:17:24.051Z,24
2017-07-23T13:18:26.461Z,24
2017-07-23T13:19:28.592Z,24
2017-07-23T13:20:30.641Z,24
2017-07-23T13:21:33.074Z,24.1
2017-07-23T13:22:35.823Z,24.1
2017-07-23T13:23:37.900Z,24.2
2017-07-23T13:24:39.974Z,24.2
2017-07-23T13:25:42.373Z,24.3
2017-07-23T13:26:44.813Z,24.3
2017-07-23T13:27:46.882Z,24.3
2017-07-23T13:28:49.273Z,24.4
2017-07-23T13:29:51.352Z,24.5
2017-07-23T13:30:54.099Z,24.5
2017-07-23T13:31:56.833Z,24.6
2017-07-23T13:32:58.891Z,24.7
2017-07-23T13:34:00.953Z,24.7
2017-07-23T13:35:03.367Z,24.8
2017-07-23T13:36:05.757Z,24.8
2017-07-23T13:37:07.833Z,24.9
2017-07-23T13:38:10.300Z,25
2017-07-23T13:39:12.696Z,25.1
2017-07-23T13:40:14.775Z,25.3
2017-07-23T13:41:16.847Z,25.5
2017-07-23T13:42:19.610Z,25.7
2017-07-23T13:43:21.677Z,25.9
2017-07-23T13:44:23.735Z,26
2017-07-23T13:45:25.802Z,26.2
2017-07-23T13:46:28.206Z,26.3
2017-07-23T13:47:30.293Z,26.4
2017-07-23T13:48:32.364Z,26.5
2017-07-23T13:49:34.436Z,26.5
2017-07-23T13:50:37.183Z,26.5
2017-07-23T13:51:39.580Z,26.5
2017-07-23T13:52:41.992Z,26.5
2017-07-23T13:53:44.413Z,26.5
2017-07-23T13:54:46.478Z,26.5
2017-07-23T13:55:48.887Z,26.5
2017-07-23T13:56:50.964Z,26.5